createdAt,value
2019-05-10T00:01:22.865Z,10.51
2019-05-10T00:04:27.105Z,10.63
2019-05-10T00:07:31.486Z,10.86
2019-05-10T00:10:07.999Z,10.62
2019-05-10T00:12:47.339Z,10.46
2019-05-10T00:15:16.479Z,10.28
2019-05-10T00:17:44.189Z,10.19
2019-05-10T00:20:11.775Z,10.06
2019-05-10T00:22:38.904Z,9.92
2019-05-10T00:25:09.143Z,9.84
2019-05-10T00:27:36.270Z,9.76
2019-05-10T00:30:04.532Z,9.67
2019-05-10T00:32:31.792Z,9.51
2019-05-10T00:35:00.085Z,9.31
2019-05-10T00:37:27.521Z,9.22
2019-05-10T00:39:54.889Z,9.11
2019-05-10T00:42:23.234Z,9.06
2019-05-10T00:44:57.927Z,9.04
2019-05-10T00:47:29.983Z,9.05
2019-05-10T00:49:57.707Z,9.08
2019-05-10T00:52:28.468Z,9.15
2019-05-10T00:54:56.087Z,9.19
2019-05-10T00:57:23.795Z,9.31
2019-05-10T00:59:52.915Z,9.26
2019-05-10T01:02:23.828Z,9.33
2019-05-10T01:04:54.666Z,9.52
2019-05-10T01:07:23.662Z,9.59
2019-05-10T01:09:51.426Z,9.58
2019-05-10T01:12:19.269Z,9.57
2019-05-10T01:14:46.830Z,9.72
2019-05-10T01:17:15.208Z,9.73
2019-05-10T01:19:42.740Z,9.77
2019-05-10T01:22:10.301Z,9.81
2019-05-10T01:24:39.622Z,9.88
2019-05-10T01:27:07.015Z,9.89
2019-05-10T01:29:37.551Z,9.93
2019-05-10T01:32:10.628Z,9.96
2019-05-10T01:34:38.055Z,10.00
2019-05-10T01:37:10.881Z,10.05
2019-05-10T01:39:39.095Z,10.06
2019-05-10T01:42:08.185Z,10.09
2019-05-10T01:44:37.310Z,10.24
2019-05-10T01:47:04.638Z,10.34
2019-05-10T01:49:32.223Z,10.39
2019-05-10T01:51:59.740Z,10.41
2019-05-10T01:54:27.033Z,10.36
2019-05-10T01:56:54.318Z,10.37
2019-05-10T01:59:21.726Z,10.52
2019-05-10T02:01:48.983Z,10.43
2019-05-10T02:04:17.685Z,10.27
2019-05-10T02:07:03.627Z,10.14
2019-05-10T02:09:35.959Z,9.97
2019-05-10T02:12:03.485Z,9.78
2019-05-10T02:14:30.803Z,9.64
2019-05-10T02:16:58.719Z,9.55
2019-05-10T02:19:29.554Z,9.39
2019-05-10T02:21:57.411Z,9.38
2019-05-10T02:24:24.917Z,9.41
2019-05-10T02:26:53.016Z,9.45
2019-05-10T02:29:20.586Z,9.49
2019-05-10T02:31:48.058Z,9.41
2019-05-10T02:34:25.636Z,9.33
2019-05-10T02:36:56.469Z,9.22
2019-05-10T02:39:27.681Z,9.04
2019-05-10T02:41:58.837Z,8.82
2019-05-10T02:44:36.288Z,8.64
2019-05-10T02:47:33.439Z,8.62
2019-05-10T02:50:04.181Z,8.61
2019-05-10T02:53:06.245Z,8.48
2019-05-10T02:55:47.205Z,8.38
2019-05-10T02:58:46.726Z,8.51
2019-05-10T03:02:28.477Z,8.58
2019-05-10T03:09:37.993Z,8.48
2019-05-10T03:11:52.477Z,8.29
2019-05-10T03:21:19.087Z,8.17
2019-05-10T03:24:27.962Z,8.19
2019-05-10T03:26:58.011Z,8.32
2019-05-10T03:30:01.079Z,8.39
2019-05-10T03:32:27.473Z,8.45
2019-05-10T03:34:54.701Z,8.41
2019-05-10T03:37:33.050Z,8.35
2019-05-10T03:40:01.115Z,8.35
2019-05-10T03:42:42.068Z,8.35
2019-05-10T03:45:13.436Z,8.32
2019-05-10T03:47:40.872Z,8.28
2019-05-10T03:50:14.104Z,8.30
2019-05-10T03:52:51.391Z,8.39
2019-05-10T03:55:17.683Z,8.39
2019-05-10T03:57:45.834Z,8.53
2019-05-10T04:00:21.680Z,8.51
2019-05-10T04:02:52.064Z,8.55
2019-05-10T04:05:23.660Z,8.52
2019-05-10T04:08:03.031Z,8.46
2019-05-10T04:10:30.953Z,8.40
2019-05-10T04:13:01.538Z,8.39
2019-05-10T04:15:31.600Z,8.41
2019-05-10T04:18:01.562Z,8.43
2019-05-10T04:20:41.837Z,8.49
2019-05-10T04:23:15.600Z,8.58
2019-05-10T04:25:53.476Z,8.66
2019-05-10T04:28:28.482Z,8.75
2019-05-10T04:31:00.482Z,8.87
2019-05-10T04:33:31.798Z,8.95
2019-05-10T04:36:03.869Z,9.05
2019-05-10T04:38:37.955Z,9.22
2019-05-10T04:41:18.574Z,9.35
2019-05-10T04:43:47.852Z,9.68
2019-05-10T04:46:15.363Z,12.40
2019-05-10T04:48:42.575Z,15.16
2019-05-10T04:51:09.851Z,17.51
2019-05-10T04:53:37.181Z,19.20
2019-05-10T04:56:04.955Z,20.66
2019-05-10T04:58:32.973Z,21.59
2019-05-10T05:01:00.291Z,21.97
2019-05-10T05:03:27.591Z,20.34
2019-05-10T05:05:54.944Z,18.36
2019-05-10T05:08:22.588Z,19.75
2019-05-10T05:10:49.992Z,21.63
2019-05-10T05:13:18.046Z,22.51
2019-05-10T05:15:45.412Z,20.58
2019-05-10T05:18:12.806Z,18.40
2019-05-10T05:20:40.196Z,16.82
2019-05-10T05:23:07.503Z,15.82
2019-05-10T05:25:40.122Z,14.90
2019-05-10T05:28:07.853Z,14.38
2019-05-10T05:30:34.140Z,15.75
2019-05-10T05:33:03.642Z,19.87
2019-05-10T05:35:31.029Z,22.65
2019-05-10T05:37:58.451Z,24.91
2019-05-10T05:40:27.186Z,26.72
2019-05-10T05:42:55.341Z,28.24
2019-05-10T05:45:22.787Z,27.90
2019-05-10T05:47:51.211Z,28.22
2019-05-10T05:53:17.185Z,31.18
2019-05-10T05:55:44.945Z,32.38
2019-05-10T05:58:25.707Z,33.43
2019-05-10T06:00:45.045Z,34.05
2019-05-10T06:03:30.223Z,35.17
2019-05-10T06:06:01.735Z,36.00
2019-05-10T06:08:54.473Z,36.73
2019-05-10T06:11:29.635Z,37.39
2019-05-10T06:14:10.806Z,36.78
2019-05-10T06:16:45.270Z,35.32
2019-05-10T06:19:29.516Z,36.49
2019-05-10T06:22:07.723Z,36.74
2019-05-10T06:24:39.166Z,36.12
2019-05-10T06:27:07.394Z,33.60
2019-05-10T06:30:01.244Z,32.06
2019-05-10T06:32:29.323Z,30.14
2019-05-10T06:35:20.890Z,27.74
2019-05-10T06:37:53.082Z,26.99
2019-05-10T06:40:32.694Z,27.51
2019-05-10T06:42:55.331Z,27.35
2019-05-10T06:45:24.362Z,29.37
2019-05-10T06:48:08.740Z,31.40
2019-05-10T06:50:53.265Z,33.99
2019-05-10T06:53:31.310Z,33.18
2019-05-10T06:56:08.733Z,32.81
2019-05-10T06:58:41.121Z,33.93
2019-05-10T07:01:15.910Z,34.45
2019-05-10T07:03:43.937Z,34.49
2019-05-10T07:06:49.626Z,35.56
2019-05-10T07:12:21.740Z,37.23
2019-05-10T07:15:03.591Z,37.22
2019-05-10T07:18:05.791Z,34.85
2019-05-10T07:20:49.798Z,36.34
2019-05-10T07:23:30.195Z,37.77
2019-05-10T07:25:59.849Z,39.55
2019-05-10T07:28:40.048Z,41.84
2019-05-10T07:31:08.461Z,44.19
2019-05-10T07:34:15.566Z,44.19
2019-05-10T07:36:52.352Z,44.65
2019-05-10T07:39:24.882Z,44.60
2019-05-10T07:42:00.360Z,42.33
2019-05-10T07:44:27.323Z,41.66
2019-05-10T07:47:03.187Z,41.33
2019-05-10T07:49:36.977Z,41.54
2019-05-10T07:52:12.452Z,42.15
2019-05-10T07:54:48.147Z,42.83
2019-05-10T07:57:24.792Z,43.49
2019-05-10T08:02:30.557Z,42.52
2019-05-10T08:05:14.019Z,40.13
2019-05-10T08:07:41.771Z,41.67
2019-05-10T08:10:10.327Z,43.12
2019-05-10T08:12:45.575Z,40.27
2019-05-10T08:15:13.000Z,39.99
2019-05-10T08:17:45.347Z,40.29
2019-05-10T08:20:20.397Z,38.55
2019-05-10T08:22:41.393Z,37.93
2019-05-10T08:25:12.690Z,39.77
2019-05-10T08:27:44.074Z,40.73
2019-05-10T08:30:22.631Z,41.62
2019-05-10T08:32:38.959Z,42.92
2019-05-10T08:35:15.991Z,41.60
2019-05-10T08:37:37.962Z,41.96
2019-05-10T08:40:06.970Z,41.30
2019-05-10T08:42:44.199Z,40.70
2019-05-10T08:45:08.646Z,39.18
2019-05-10T08:47:33.610Z,40.41
2019-05-10T08:50:17.953Z,39.79
2019-05-10T08:52:33.919Z,37.73
2019-05-10T08:55:02.639Z,37.72
2019-05-10T08:57:29.481Z,39.78
2019-05-10T09:00:06.601Z,41.99
2019-05-10T09:02:39.081Z,42.80
2019-05-10T09:05:08.589Z,42.82
2019-05-10T09:07:39.003Z,44.25
2019-05-10T09:10:12.866Z,44.66
2019-05-10T09:12:50.286Z,42.53
2019-05-10T09:15:15.957Z,39.83
2019-05-10T09:17:43.325Z,40.19
2019-05-10T09:20:20.172Z,40.56
2019-05-10T09:22:42.440Z,41.75
2019-05-10T09:25:15.364Z,42.22
2019-05-10T09:27:43.466Z,42.89
2019-05-10T09:30:14.058Z,43.74
2019-05-10T09:32:43.195Z,44.19
2019-05-10T09:35:12.531Z,43.18
2019-05-10T09:37:42.066Z,42.44
2019-05-10T09:40:12.340Z,42.01
2019-05-10T09:42:40.789Z,41.56
2019-05-10T09:45:09.777Z,40.43
2019-05-10T09:47:37.324Z,38.05
2019-05-10T09:50:05.204Z,38.05
2019-05-10T09:52:32.494Z,35.84
2019-05-10T09:55:03.943Z,33.95
2019-05-10T09:57:32.301Z,32.56
2019-05-10T09:59:59.856Z,30.39
2019-05-10T10:02:33.635Z,28.27
2019-05-10T10:04:58.952Z,26.72
2019-05-10T10:07:33.362Z,25.67
2019-05-10T10:09:57.845Z,24.63
2019-05-10T10:12:25.466Z,23.52
2019-05-10T10:14:52.778Z,22.87
2019-05-10T10:17:20.680Z,22.56
2019-05-10T10:19:50.373Z,22.45
2019-05-10T10:22:19.856Z,22.16
2019-05-10T10:24:49.198Z,21.99
2019-05-10T10:27:18.208Z,21.38
2019-05-10T10:29:47.495Z,21.24
2019-05-10T10:32:15.287Z,21.07
2019-05-10T10:34:43.225Z,20.78
2019-05-10T10:37:14.835Z,20.61
2019-05-10T10:39:42.136Z,20.57
2019-05-10T10:42:13.074Z,20.57
2019-05-10T10:44:39.115Z,20.47
2019-05-10T10:47:08.250Z,20.36
2019-05-10T10:49:37.654Z,20.28
2019-05-10T10:52:05.733Z,20.18
2019-05-10T10:54:37.440Z,20.08
2019-05-10T10:57:03.265Z,20.22
2019-05-10T10:59:30.503Z,20.35
2019-05-10T11:02:27.467Z,20.54
2019-05-10T11:04:27.287Z,20.58
2019-05-10T11:07:09.285Z,20.25
2019-05-10T11:09:24.379Z,20.11
2019-05-10T11:11:52.216Z,20.25
2019-05-10T11:14:20.636Z,20.40
2019-05-10T11:16:52.828Z,20.18
2019-05-10T11:19:17.128Z,20.06
2019-05-10T11:21:44.626Z,20.20
2019-05-10T11:24:17.999Z,20.15
2019-05-10T11:26:44.690Z,19.99
2019-05-10T11:29:14.193Z,19.93
2019-05-10T11:31:41.510Z,20.02
2019-05-10T11:34:09.152Z,20.15
2019-05-10T11:36:40.494Z,20.23
2019-05-10T11:39:06.279Z,20.43
2019-05-10T11:41:37.007Z,20.28
2019-05-10T11:44:08.839Z,20.02
2019-05-10T11:46:35.854Z,20.08
2019-05-10T11:49:05.602Z,20.17
2019-05-10T11:51:33.449Z,20.33
2019-05-10T11:54:01.388Z,20.49
2019-05-10T11:56:32.041Z,20.35
2019-05-10T11:59:02.174Z,20.38
2019-05-10T12:01:28.361Z,20.28
2019-05-10T12:03:55.740Z,20.21
2019-05-10T12:06:23.325Z,20.30
2019-05-10T12:08:56.797Z,20.31
2019-05-10T12:11:29.300Z,20.30
2019-05-10T12:13:52.857Z,20.18
2019-05-10T12:16:21.453Z,20.24
2019-05-10T12:19:02.334Z,20.36
2019-05-10T12:21:21.682Z,20.25
2019-05-10T12:23:54.836Z,20.19
2019-05-10T12:28:47.851Z,20.43
2019-05-10T12:31:21.113Z,20.79
2019-05-10T12:33:51.658Z,21.04
2019-05-10T12:36:25.587Z,21.26
2019-05-10T12:38:53.316Z,21.43
2019-05-10T12:41:23.370Z,21.49
2019-05-10T12:43:51.728Z,21.38
2019-05-10T12:46:20.681Z,20.96
2019-05-10T12:48:51.616Z,21.00
2019-05-10T12:51:21.196Z,21.18
2019-05-10T12:53:52.171Z,21.16
2019-05-10T12:56:19.076Z,21.26
2019-05-10T12:58:56.360Z,21.33
2019-05-10T13:01:16.544Z,21.47
2019-05-10T13:03:45.315Z,21.43
2019-05-10T13:06:19.596Z,21.36
2019-05-10T13:08:46.334Z,21.22
2019-05-10T13:11:18.854Z,20.97
2019-05-10T13:13:52.030Z,20.90
2019-05-10T13:16:22.506Z,20.67
2019-05-10T13:18:52.296Z,20.46
2019-05-10T13:21:20.693Z,20.41
2019-05-10T13:24:02.608Z,20.35
2019-05-10T13:26:32.259Z,20.02
2019-05-10T13:29:08.033Z,19.87
2019-05-10T13:31:42.112Z,19.95
2019-05-10T13:34:04.556Z,20.20
2019-05-10T13:36:37.382Z,19.93
2019-05-10T13:39:04.945Z,19.70
2019-05-10T13:41:32.635Z,19.69
2019-05-10T13:44:04.803Z,19.91
2019-05-10T13:46:29.286Z,20.38
2019-05-10T13:48:56.732Z,20.76
2019-05-10T13:51:27.634Z,20.81
2019-05-10T13:53:59.026Z,20.78
2019-05-10T13:56:24.624Z,20.84
2019-05-10T13:58:51.951Z,20.85
2019-05-10T14:01:19.354Z,20.98
2019-05-10T14:03:53.841Z,20.88
2019-05-10T14:06:20.662Z,20.85
2019-05-10T14:08:50.450Z,20.71
2019-05-10T14:11:19.208Z,20.66
2019-05-10T14:13:48.758Z,20.61
2019-05-10T14:16:19.879Z,20.51
2019-05-10T14:18:49.649Z,20.52
2019-05-10T14:21:17.179Z,20.55
2019-05-10T14:23:57.338Z,20.60
2019-05-10T14:26:31.574Z,20.46
2019-05-10T14:29:39.328Z,20.40
2019-05-10T14:32:05.730Z,20.30
2019-05-10T14:34:37.726Z,20.31
2019-05-10T14:37:03.179Z,20.25
2019-05-10T14:39:30.424Z,20.27
2019-05-10T14:42:09.320Z,20.28
2019-05-10T14:44:41.847Z,20.41
2019-05-10T14:47:11.252Z,20.23
2019-05-10T14:49:49.522Z,20.18
2019-05-10T14:52:17.193Z,20.06
2019-05-10T14:54:49.973Z,20.01
2019-05-10T14:57:13.722Z,19.97
2019-05-10T14:59:41.093Z,20.03
2019-05-10T15:02:08.570Z,19.99
2019-05-10T15:04:46.476Z,19.96
2019-05-10T15:07:14.469Z,20.01
2019-05-10T15:09:54.218Z,19.96
2019-05-10T15:12:22.699Z,19.91
2019-05-10T15:14:49.294Z,19.90
2019-05-10T15:17:19.772Z,19.97
2019-05-10T15:19:56.374Z,20.02
2019-05-10T15:22:18.436Z,20.04
2019-05-10T15:24:45.869Z,19.99
2019-05-10T15:27:16.229Z,19.94
2019-05-10T15:29:42.559Z,19.96
2019-05-10T15:32:12.208Z,20.02
2019-05-10T15:35:02.829Z,20.06
2019-05-10T15:37:13.086Z,20.12
2019-05-10T15:39:40.430Z,20.20
2019-05-10T15:42:08.306Z,20.32
2019-05-10T15:44:36.161Z,20.30
2019-05-10T15:47:03.395Z,20.31
2019-05-10T15:49:32.921Z,20.30
2019-05-10T15:54:37.994Z,20.41
2019-05-10T15:57:02.306Z,20.50
2019-05-10T15:59:23.911Z,20.47
2019-05-10T15:59:29.611Z,20.82
2019-05-10T16:01:57.144Z,21.18
2019-05-10T16:04:24.701Z,21.18
2019-05-10T16:06:51.895Z,21.24
2019-05-10T16:09:21.171Z,21.43
2019-05-10T16:11:50.255Z,21.60
2019-05-10T16:14:17.642Z,21.73
2019-05-10T16:16:45.766Z,21.66
2019-05-10T16:19:18.588Z,21.40
2019-05-10T16:21:46.605Z,21.30
2019-05-10T16:24:13.559Z,21.06
2019-05-10T16:26:41.097Z,20.81
2019-05-10T16:29:08.549Z,20.74
2019-05-10T16:31:36.601Z,20.63
2019-05-10T16:34:06.598Z,20.47
2019-05-10T16:36:35.156Z,20.36
2019-05-10T16:39:04.776Z,20.23
2019-05-10T16:41:32.158Z,20.30
2019-05-10T16:44:00.166Z,20.28
2019-05-10T16:46:29.264Z,20.30
2019-05-10T16:48:56.613Z,20.20
2019-05-10T16:51:23.856Z,20.03
2019-05-10T16:53:52.745Z,19.85
2019-05-10T16:56:21.325Z,19.74
2019-05-10T16:58:53.104Z,19.70
2019-05-10T17:01:18.739Z,19.62
2019-05-10T17:03:51.152Z,19.63
2019-05-10T17:06:16.996Z,19.58
2019-05-10T17:08:44.204Z,19.56
2019-05-10T17:11:11.930Z,19.46
2019-05-10T17:13:41.472Z,19.26
2019-05-10T17:16:11.612Z,19.04
2019-05-10T17:18:38.745Z,18.80
2019-05-10T17:21:07.252Z,18.60
2019-05-10T17:23:34.861Z,18.45
2019-05-10T17:26:02.247Z,18.35
2019-05-10T17:28:35.254Z,18.43
2019-05-10T17:31:00.115Z,18.40
2019-05-10T17:33:29.006Z,18.33
2019-05-10T17:36:07.910Z,18.47
2019-05-10T17:38:31.641Z,18.43
2019-05-10T17:41:10.947Z,18.42
2019-05-10T17:43:40.318Z,18.46
2019-05-10T17:46:12.757Z,18.39
2019-05-10T17:48:40.846Z,18.32
2019-05-10T17:51:09.815Z,18.14
2019-05-10T17:53:37.638Z,17.98
2019-05-10T17:56:05.064Z,17.80
2019-05-10T17:58:33.951Z,17.70
2019-05-10T18:01:02.093Z,17.61
2019-05-10T18:03:29.814Z,17.52
2019-05-10T18:05:57.110Z,17.60
2019-05-10T18:08:25.517Z,17.49
2019-05-10T18:10:57.340Z,17.43
2019-05-10T18:13:22.664Z,17.31
2019-05-10T18:15:50.029Z,17.17
2019-05-10T18:18:17.329Z,17.05
2019-05-10T18:21:02.024Z,16.98
2019-05-10T18:23:29.294Z,16.89
2019-05-10T18:25:58.500Z,16.73
2019-05-10T18:28:30.463Z,16.53
2019-05-10T18:30:57.828Z,16.37
2019-05-10T18:33:27.285Z,16.28
2019-05-10T18:35:54.899Z,16.14
2019-05-10T18:38:30.795Z,16.02
2019-05-10T18:40:55.175Z,15.94
2019-05-10T18:43:22.779Z,15.80
2019-05-10T18:45:50.038Z,15.68
2019-05-10T18:48:28.064Z,15.54
2019-05-10T18:50:55.524Z,15.44
2019-05-10T18:53:23.109Z,15.30
2019-05-10T18:55:50.689Z,15.21
2019-05-10T18:58:23.341Z,15.11
2019-05-10T19:00:47.171Z,15.00
2019-05-10T19:03:14.522Z,14.88
2019-05-10T19:05:41.755Z,14.81
2019-05-10T19:08:09.011Z,14.73
2019-05-10T19:10:36.479Z,14.63
2019-05-10T19:13:05.577Z,14.56
2019-05-10T19:15:33.311Z,14.60
2019-05-10T19:18:00.705Z,14.63
2019-05-10T19:20:28.711Z,14.61
2019-05-10T19:22:56.491Z,14.59
2019-05-10T19:25:23.891Z,14.69
2019-05-10T19:27:52.203Z,14.67
2019-05-10T19:30:20.681Z,14.62
2019-05-10T19:32:50.970Z,14.56
2019-05-10T19:35:18.734Z,14.46
2019-05-10T19:37:46.066Z,14.45
2019-05-10T19:40:14.154Z,14.48
2019-05-10T19:42:43.074Z,14.47
2019-05-10T19:45:13.069Z,14.41
2019-05-10T19:47:40.662Z,14.47
2019-05-10T19:50:08.471Z,14.45
2019-05-10T19:52:36.817Z,14.43
2019-05-10T19:55:04.371Z,14.40
2019-05-10T19:57:32.243Z,14.44
2019-05-10T19:59:59.678Z,14.41
2019-05-10T20:02:28.098Z,14.40
2019-05-10T20:04:55.528Z,14.36
2019-05-10T20:07:22.961Z,14.33
2019-05-10T20:09:53.454Z,14.32
2019-05-10T20:12:20.728Z,14.34
2019-05-10T20:14:48.234Z,14.38
2019-05-10T20:17:15.722Z,14.40
2019-05-10T20:19:43.618Z,14.41
2019-05-10T20:22:11.621Z,14.49
2019-05-10T20:24:39.103Z,14.54
2019-05-10T20:27:06.530Z,14.55
2019-05-10T20:29:33.910Z,14.57
2019-05-10T20:32:01.384Z,14.59
2019-05-10T20:34:29.291Z,14.56
2019-05-10T20:36:56.632Z,14.59
2019-05-10T20:39:24.855Z,14.77
2019-05-10T20:41:52.125Z,14.99
2019-05-10T20:44:19.476Z,14.78
2019-05-10T20:46:47.217Z,14.62
2019-05-10T20:49:14.414Z,14.55
2019-05-10T20:51:41.694Z,14.47
2019-05-10T20:54:09.246Z,14.39
2019-05-10T20:56:36.458Z,14.32
2019-05-10T20:59:03.809Z,14.23
2019-05-10T21:01:31.112Z,14.18
2019-05-10T21:03:58.718Z,14.13
2019-05-10T21:06:26.031Z,14.12
2019-05-10T21:08:53.462Z,14.08
2019-05-10T21:11:20.671Z,14.06
2019-05-10T21:13:48.619Z,14.08
2019-05-10T21:16:16.536Z,14.19
2019-05-10T21:18:44.418Z,14.23
2019-05-10T21:21:12.515Z,14.32
2019-05-10T21:23:39.944Z,14.25
2019-05-10T21:26:07.380Z,14.21
2019-05-10T21:28:34.780Z,14.20
2019-05-10T21:31:02.036Z,14.20
2019-05-10T21:33:29.731Z,14.19
2019-05-10T21:35:57.514Z,14.15
2019-05-10T21:38:33.060Z,14.09
2019-05-10T21:40:55.329Z,14.08
2019-05-10T21:43:22.860Z,14.04
2019-05-10T21:45:50.081Z,14.04
2019-05-10T21:48:17.831Z,14.04
2019-05-10T21:50:45.325Z,14.01
2019-05-10T21:53:14.190Z,14.01
2019-05-10T21:55:41.587Z,13.98
2019-05-10T21:58:08.925Z,13.97
2019-05-10T22:00:40.605Z,13.95
2019-05-10T22:03:08.600Z,13.92
2019-05-10T22:05:36.658Z,13.90
2019-05-10T22:08:04.673Z,13.91
2019-05-10T22:10:32.903Z,13.93
2019-05-10T22:13:00.513Z,13.96
2019-05-10T22:15:27.854Z,13.96
2019-05-10T22:17:55.101Z,14.06
2019-05-10T22:20:23.007Z,14.02
2019-05-10T22:22:50.198Z,14.01
2019-05-10T22:25:17.478Z,13.96
2019-05-10T22:27:45.043Z,13.92
2019-05-10T22:30:13.227Z,13.90
2019-05-10T22:32:41.098Z,13.91
2019-05-10T22:35:09.734Z,13.90
2019-05-10T22:37:37.244Z,13.91
2019-05-10T22:40:04.612Z,13.89
2019-05-10T22:42:32.432Z,13.88
2019-05-10T22:45:00.388Z,13.89
2019-05-10T22:47:27.604Z,13.87
2019-05-10T22:49:55.213Z,13.83
2019-05-10T22:52:22.484Z,13.83
2019-05-10T22:54:50.892Z,13.83
2019-05-10T22:57:18.448Z,13.80
2019-05-10T22:59:46.000Z,13.83
2019-05-10T23:02:14.216Z,13.86
2019-05-10T23:04:41.704Z,13.87
2019-05-10T23:07:09.287Z,13.88
2019-05-10T23:09:37.981Z,13.88
2019-05-10T23:12:06.019Z,13.86
2019-05-10T23:14:33.853Z,13.84
2019-05-10T23:17:01.454Z,13.79
2019-05-10T23:19:29.142Z,13.74
2019-05-10T23:21:57.725Z,13.74
2019-05-10T23:24:38.988Z,13.73
2019-05-10T23:27:06.809Z,13.65
2019-05-10T23:29:35.270Z,13.31
2019-05-10T23:32:03.178Z,12.97
2019-05-10T23:34:30.441Z,12.66
2019-05-10T23:36:57.693Z,12.49
2019-05-10T23:39:39.588Z,12.39
2019-05-10T23:41:54.507Z,12.33
2019-05-10T23:44:22.878Z,12.32
2019-05-10T23:46:50.090Z,12.37
2019-05-10T23:49:17.699Z,12.36
2019-05-10T23:51:45.422Z,12.36
2019-05-10T23:54:13.310Z,12.40
2019-05-10T23:56:41.001Z,12.43
2019-05-10T23:59:08.260Z,12.44
